createdAt,value
2022-12-13T00:00:47.231Z,71.73
2022-12-13T00:03:18.800Z,71.53
2022-12-13T00:05:50.392Z,71.69
2022-12-13T00:08:22.003Z,71.51
2022-12-13T00:11:06.232Z,71.59
2022-12-13T00:13:37.879Z,71.50
2022-12-13T00:16:18.735Z,71.70
2022-12-13T00:18:55.891Z,71.52
2022-12-13T00:21:30.449Z,71.58
2022-12-13T00:24:02.390Z,71.50
2022-12-13T00:26:34.354Z,71.31
2022-12-13T00:29:07.274Z,71.40
2022-12-13T00:34:30.797Z,71.42
2022-12-13T00:37:02.343Z,71.12
2022-12-13T00:39:36.854Z,71.18
2022-12-13T00:42:08.464Z,70.97
2022-12-13T00:44:39.981Z,71.11
2022-12-13T00:47:11.556Z,71.13
2022-12-13T00:49:43.145Z,71.21
2022-12-13T00:52:17.059Z,71.04
2022-12-13T00:54:48.727Z,71.51
2022-12-13T00:57:21.223Z,71.45
2022-12-13T00:59:52.997Z,70.92
2022-12-13T01:02:24.542Z,71.10
2022-12-13T01:04:56.075Z,70.72
2022-12-13T01:07:29.064Z,70.89
2022-12-13T01:10:00.953Z,71.11
2022-12-13T01:12:33.174Z,71.13
2022-12-13T01:15:06.895Z,71.25
2022-12-13T01:17:41.387Z,71.11
2022-12-13T01:20:13.105Z,71.13
2022-12-13T01:22:44.651Z,71.40
2022-12-13T01:25:19.341Z,71.43
2022-12-13T01:27:50.785Z,71.42
2022-12-13T01:30:22.337Z,71.28
2022-12-13T01:32:53.944Z,71.03
2022-12-13T01:35:25.493Z,71.05
2022-12-13T01:37:58.294Z,71.21
2022-12-13T01:40:32.169Z,71.56
2022-12-13T01:43:14.784Z,71.50
2022-12-13T01:45:46.685Z,71.37
2022-12-13T01:48:26.213Z,71.47
2022-12-13T01:51:07.008Z,71.18
2022-12-13T01:53:42.634Z,71.29
2022-12-13T01:56:20.032Z,71.44
2022-12-13T01:58:54.832Z,71.32
2022-12-13T02:01:28.280Z,71.40
2022-12-13T02:03:59.989Z,71.38
2022-12-13T02:06:35.898Z,71.51
2022-12-13T02:09:08.932Z,71.73
2022-12-13T02:11:43.638Z,71.63
2022-12-13T02:14:15.125Z,71.79
2022-12-13T02:16:58.183Z,71.72
2022-12-13T02:19:56.608Z,71.68
2022-12-13T02:23:02.048Z,71.73
2022-12-13T02:26:03.588Z,71.92
2022-12-13T02:28:47.041Z,71.91
2022-12-13T02:31:43.935Z,71.78
2022-12-13T02:34:24.519Z,71.85
2022-12-13T02:37:18.122Z,71.90
2022-12-13T02:39:58.568Z,71.66
2022-12-13T02:42:41.910Z,71.72
2022-12-13T02:45:37.951Z,71.77
2022-12-13T02:48:12.292Z,71.74
2022-12-13T02:50:46.044Z,71.90
2022-12-13T02:53:19.285Z,71.57
2022-12-13T02:55:50.824Z,71.61
2022-12-13T02:58:29.319Z,71.62
2022-12-13T03:01:28.950Z,71.99
2022-12-13T03:04:22.180Z,71.67
2022-12-13T03:07:25.843Z,71.56
2022-12-13T03:10:06.508Z,71.80
2022-12-13T03:13:27.051Z,72.06
2022-12-13T03:16:08.611Z,71.81
2022-12-13T03:18:41.638Z,71.70
2022-12-13T03:21:13.613Z,71.63
2022-12-13T03:23:47.383Z,71.47
2022-12-13T03:26:22.404Z,71.35
2022-12-13T03:28:54.468Z,71.25
2022-12-13T03:31:27.605Z,71.43
2022-12-13T03:33:59.366Z,71.71
2022-12-13T03:36:31.198Z,71.76
2022-12-13T03:39:05.521Z,71.88
2022-12-13T03:41:37.196Z,71.92
2022-12-13T03:44:08.795Z,71.72
2022-12-13T03:46:40.494Z,71.63
2022-12-13T03:49:16.817Z,71.53
2022-12-13T03:51:49.078Z,71.55
2022-12-13T03:54:24.277Z,72.00
2022-12-13T03:56:55.945Z,71.74
2022-12-13T03:59:27.812Z,71.25
2022-12-13T04:01:59.648Z,71.58
2022-12-13T04:04:31.426Z,71.63
2022-12-13T04:07:03.133Z,71.54
2022-12-13T04:09:34.715Z,71.73
2022-12-13T04:12:28.604Z,71.60
2022-12-13T04:15:00.170Z,71.36
2022-12-13T04:17:31.792Z,71.99
2022-12-13T04:20:04.053Z,71.66
2022-12-13T04:22:35.753Z,71.52
2022-12-13T04:25:08.011Z,71.16
2022-12-13T04:27:40.115Z,71.22
2022-12-13T04:30:13.072Z,71.40
2022-12-13T04:32:46.801Z,71.48
2022-12-13T04:35:18.583Z,71.37
2022-12-13T04:37:50.998Z,71.68
2022-12-13T04:40:24.174Z,71.50
2022-12-13T04:42:55.936Z,71.75
2022-12-13T04:45:27.753Z,71.79
2022-12-13T04:48:02.315Z,71.58
2022-12-13T04:50:34.060Z,71.55
2022-12-13T04:53:05.693Z,71.52
2022-12-13T04:55:37.270Z,71.32
2022-12-13T04:58:08.831Z,71.27
2022-12-13T05:00:41.007Z,70.96
2022-12-13T05:03:16.203Z,71.20
2022-12-13T05:05:50.353Z,71.08
2022-12-13T05:08:22.353Z,71.30
2022-12-13T05:10:54.674Z,71.39
2022-12-13T05:13:26.583Z,71.06
2022-12-13T05:16:06.173Z,71.33
2022-12-13T05:18:38.743Z,71.30
2022-12-13T05:21:12.181Z,71.54
2022-12-13T05:23:43.760Z,71.88
2022-12-13T05:26:15.385Z,71.85
2022-12-13T05:28:49.133Z,71.63
2022-12-13T05:31:24.197Z,72.40
2022-12-13T05:34:01.508Z,72.48
2022-12-13T05:36:33.354Z,72.08
2022-12-13T05:39:04.983Z,72.69
2022-12-13T05:41:37.192Z,72.69
2022-12-13T05:44:10.507Z,72.39
2022-12-13T05:46:42.094Z,72.25
2022-12-13T05:49:13.739Z,72.31
2022-12-13T05:51:45.321Z,72.07
2022-12-13T05:54:16.944Z,71.99
2022-12-13T05:56:48.587Z,71.94
2022-12-13T05:59:20.200Z,71.72
2022-12-13T06:01:51.916Z,71.82
2022-12-13T06:04:23.787Z,71.41
2022-12-13T06:06:55.534Z,71.61
2022-12-13T06:09:27.124Z,72.47
2022-12-13T06:12:01.003Z,72.78
2022-12-13T06:14:33.261Z,73.13
2022-12-13T06:17:09.858Z,72.25
2022-12-13T06:19:41.702Z,72.56
2022-12-13T06:22:14.553Z,72.30
2022-12-13T06:24:46.545Z,72.76
2022-12-13T06:27:18.209Z,72.72
2022-12-13T06:29:49.863Z,72.82
2022-12-13T06:32:21.426Z,72.79
2022-12-13T06:34:53.010Z,72.55
2022-12-13T06:37:28.476Z,72.53
2022-12-13T06:40:00.206Z,72.68
2022-12-13T06:42:32.062Z,72.86
2022-12-13T06:45:04.872Z,72.35
2022-12-13T06:47:38.751Z,72.49
2022-12-13T06:50:13.173Z,72.23
2022-12-13T06:52:46.575Z,71.92
2022-12-13T06:55:23.883Z,72.24
2022-12-13T06:57:58.415Z,71.63
2022-12-13T07:00:36.897Z,72.02
2022-12-13T07:03:12.674Z,71.68
2022-12-13T07:05:45.165Z,71.71
2022-12-13T07:08:22.375Z,71.46
2022-12-13T07:10:55.400Z,72.31
2022-12-13T07:13:27.084Z,71.30
2022-12-13T07:16:01.032Z,70.63
2022-12-13T07:18:33.614Z,70.46
2022-12-13T07:21:09.551Z,70.53
2022-12-13T07:23:55.421Z,70.11
2022-12-13T07:26:27.324Z,69.91
2022-12-13T07:28:59.050Z,68.69
2022-12-13T07:31:30.877Z,67.88
2022-12-13T07:34:02.724Z,64.74
2022-12-13T07:36:34.362Z,62.53
2022-12-13T07:39:05.985Z,59.81
2022-12-13T07:41:37.736Z,55.06
2022-12-13T07:44:10.917Z,53.59
2022-12-13T07:46:42.624Z,51.04
2022-12-13T07:49:14.347Z,48.33
2022-12-13T07:51:45.931Z,46.19
2022-12-13T07:54:17.950Z,43.91
2022-12-13T07:56:49.490Z,41.27
2022-12-13T07:59:28.520Z,40.45
2022-12-13T08:02:01.736Z,38.53
2022-12-13T08:04:38.030Z,37.57
2022-12-13T08:07:10.618Z,35.94
2022-12-13T08:09:42.211Z,35.35
2022-12-13T08:12:13.885Z,32.65
2022-12-13T08:14:55.246Z,31.77
2022-12-13T08:17:26.913Z,30.22
2022-12-13T08:19:58.534Z,29.87
2022-12-13T08:22:30.187Z,29.65
2022-12-13T08:25:08.042Z,29.24
2022-12-13T08:27:43.035Z,28.56
2022-12-13T08:30:20.480Z,27.76
2022-12-13T08:32:56.005Z,27.06
2022-12-13T08:35:33.694Z,26.43
2022-12-13T08:38:05.488Z,24.51
2022-12-13T08:40:37.242Z,25.58
2022-12-13T08:43:09.027Z,25.37
2022-12-13T08:45:40.676Z,25.22
2022-12-13T08:48:12.769Z,25.11
2022-12-13T08:50:44.342Z,24.76
2022-12-13T08:53:28.594Z,24.45
2022-12-13T08:56:03.300Z,24.41
2022-12-13T08:58:34.975Z,24.00
2022-12-13T09:01:07.970Z,23.63
2022-12-13T09:03:39.681Z,22.85
2022-12-13T09:06:14.379Z,22.41
2022-12-13T09:08:51.735Z,22.36
2022-12-13T09:11:34.837Z,22.97
2022-12-13T09:14:14.153Z,23.49
2022-12-13T09:16:50.598Z,23.95
2022-12-13T09:19:26.704Z,23.88
2022-12-13T09:22:02.736Z,23.64
2022-12-13T09:24:35.843Z,23.12
2022-12-13T09:27:10.344Z,23.87
2022-12-13T09:29:58.818Z,23.53
2022-12-13T09:32:32.055Z,22.72
2022-12-13T09:35:06.841Z,22.88
2022-12-13T09:37:44.107Z,23.76
2022-12-13T09:40:26.277Z,24.75
2022-12-13T09:43:12.325Z,24.11
2022-12-13T09:45:50.875Z,25.07
2022-12-13T09:48:23.825Z,25.14
2022-12-13T09:51:16.693Z,24.81
2022-12-13T09:53:50.691Z,24.30
2022-12-13T09:56:23.925Z,23.79
2022-12-13T09:58:56.966Z,24.04
2022-12-13T10:01:28.705Z,23.82
2022-12-13T10:04:01.380Z,23.61
2022-12-13T10:06:34.696Z,22.77
2022-12-13T10:09:12.251Z,22.71
2022-12-13T10:11:51.386Z,21.84
2022-12-13T10:14:31.443Z,22.97
2022-12-13T10:17:07.488Z,23.61
2022-12-13T10:19:43.317Z,24.09
2022-12-13T10:22:17.333Z,23.77
2022-12-13T10:24:52.197Z,22.77
2022-12-13T10:27:33.113Z,22.40
2022-12-13T10:30:28.732Z,22.02
2022-12-13T10:33:03.740Z,22.44
2022-12-13T10:35:40.908Z,22.52
2022-12-13T10:38:18.544Z,22.23
2022-12-13T10:40:50.228Z,22.52
2022-12-13T10:43:27.796Z,22.99
2022-12-13T10:46:03.007Z,23.15
2022-12-13T10:48:40.190Z,22.68
2022-12-13T10:51:14.418Z,23.09
2022-12-13T10:53:49.949Z,23.36
2022-12-13T10:56:24.130Z,23.46
2022-12-13T10:59:24.633Z,23.67
2022-12-13T11:01:56.382Z,25.13
2022-12-13T11:04:29.923Z,26.85
2022-12-13T11:07:28.113Z,28.87
2022-12-13T11:10:41.555Z,31.16
2022-12-13T11:13:43.844Z,32.38
2022-12-13T11:16:26.102Z,33.46
2022-12-13T11:19:02.593Z,34.83
2022-12-13T11:21:37.774Z,36.89
2022-12-13T11:24:16.849Z,37.33
2022-12-13T11:27:03.071Z,38.57
2022-12-13T11:29:58.893Z,39.77
2022-12-13T11:32:33.116Z,40.90
2022-12-13T11:35:28.060Z,41.06
2022-12-13T11:38:11.243Z,41.58
2022-12-13T11:40:53.043Z,42.05
2022-12-13T11:43:58.309Z,43.39
2022-12-13T11:46:40.448Z,45.18
2022-12-13T11:49:40.934Z,45.75
2022-12-13T11:52:23.631Z,45.95
2022-12-13T11:55:03.775Z,47.12
2022-12-13T11:57:41.640Z,48.06
2022-12-13T12:00:33.631Z,49.86
2022-12-13T12:03:09.297Z,50.58
2022-12-13T12:05:47.020Z,49.62
2022-12-13T12:08:32.388Z,48.72
2022-12-13T12:11:10.816Z,48.58
2022-12-13T12:14:13.070Z,48.44
2022-12-13T12:16:53.958Z,47.09
2022-12-13T12:19:31.668Z,45.42
2022-12-13T12:22:32.386Z,46.71
2022-12-13T12:25:38.177Z,47.82
2022-12-13T12:28:44.571Z,48.90
2022-12-13T12:31:30.118Z,49.18
2022-12-13T12:34:40.457Z,49.76
2022-12-13T12:37:47.774Z,50.02
2022-12-13T12:41:15.687Z,51.30
2022-12-13T12:44:06.582Z,52.01
2022-12-13T12:49:41.040Z,51.81
2022-12-13T12:52:50.600Z,52.53
2022-12-13T12:55:51.556Z,52.68
2022-12-13T12:58:44.919Z,52.88
2022-12-13T13:01:54.083Z,52.96
2022-12-13T13:04:36.330Z,53.90
2022-12-13T13:07:22.527Z,54.35
2022-12-13T13:09:57.292Z,54.51
2022-12-13T13:12:31.042Z,55.00
2022-12-13T13:15:33.608Z,55.87
2022-12-13T13:18:43.768Z,56.24
2022-12-13T13:21:24.362Z,57.02
2022-12-13T13:24:08.500Z,57.63
2022-12-13T13:26:46.578Z,57.83
2022-12-13T13:29:27.479Z,58.13
2022-12-13T13:32:12.378Z,58.79
2022-12-13T13:35:32.537Z,59.04
2022-12-13T13:38:22.860Z,60.48
2022-12-13T13:40:55.164Z,60.17
2022-12-13T13:43:32.580Z,60.73
2022-12-13T13:46:13.104Z,60.81
2022-12-13T13:49:05.369Z,60.91
2022-12-13T13:52:08.573Z,60.97
2022-12-13T13:55:05.726Z,61.45
2022-12-13T13:58:12.991Z,62.56
2022-12-13T14:00:56.815Z,63.62
2022-12-13T14:03:48.673Z,63.72
2022-12-13T14:06:46.649Z,63.80
2022-12-13T14:09:45.827Z,64.19
2022-12-13T14:12:42.806Z,64.53
2022-12-13T14:15:59.613Z,65.06
2022-12-13T14:19:11.085Z,64.93
2022-12-13T14:22:02.839Z,66.21
2022-12-13T14:24:59.529Z,66.23
2022-12-13T14:27:46.895Z,66.32
2022-12-13T14:30:28.202Z,66.11
2022-12-13T14:33:03.619Z,66.51
2022-12-13T14:35:35.674Z,66.92
2022-12-13T14:38:25.942Z,67.73
2022-12-13T14:41:08.515Z,68.10
2022-12-13T14:43:43.228Z,68.75
2022-12-13T14:46:20.406Z,67.28
2022-12-13T14:48:54.034Z,68.65
2022-12-13T14:51:32.816Z,68.85
2022-12-13T14:54:15.554Z,68.69
2022-12-13T14:57:02.535Z,68.72
2022-12-13T14:59:50.402Z,69.23
2022-12-13T15:02:31.272Z,68.90
2022-12-13T15:05:05.707Z,69.61
2022-12-13T15:07:44.849Z,70.02
2022-12-13T15:10:25.374Z,70.12
2022-12-13T15:13:00.343Z,70.65
2022-12-13T15:15:36.985Z,70.58
2022-12-13T15:18:24.534Z,71.10
2022-12-13T15:21:02.540Z,70.96
2022-12-13T15:23:56.077Z,71.41
2022-12-13T15:26:34.422Z,71.61
2022-12-13T15:29:14.825Z,71.67
2022-12-13T15:31:49.106Z,71.46
2022-12-13T15:34:31.111Z,71.67
2022-12-13T15:37:29.413Z,71.35
2022-12-13T15:40:08.767Z,72.39
2022-12-13T15:42:47.138Z,71.26
2022-12-13T15:45:22.889Z,71.48
2022-12-13T15:47:55.139Z,70.77
2022-12-13T15:50:45.519Z,71.29
2022-12-13T15:53:30.654Z,71.14
2022-12-13T15:56:09.491Z,71.12
2022-12-13T15:58:41.404Z,71.13
2022-12-13T16:01:26.082Z,70.99
2022-12-13T16:04:03.663Z,70.87
2022-12-13T16:06:35.308Z,70.75
2022-12-13T16:09:18.608Z,71.36
2022-12-13T16:12:01.917Z,71.02
2022-12-13T16:14:49.030Z,71.20
2022-12-13T16:17:27.434Z,71.43
2022-12-13T16:20:02.066Z,71.80
2022-12-13T16:22:35.191Z,72.07
2022-12-13T16:25:07.402Z,71.48
2022-12-13T16:27:39.585Z,71.45
2022-12-13T16:30:22.612Z,71.54
2022-12-13T16:33:18.078Z,71.57
2022-12-13T16:35:49.295Z,71.44
2022-12-13T16:38:26.683Z,71.87
2022-12-13T16:41:08.808Z,71.50
2022-12-13T16:44:03.319Z,71.94
2022-12-13T16:47:12.236Z,72.10
2022-12-13T16:50:03.959Z,72.18
2022-12-13T16:52:39.489Z,72.13
2022-12-13T16:55:11.112Z,72.18
2022-12-13T16:57:42.700Z,72.26
2022-12-13T17:00:14.781Z,71.95
2022-12-13T17:02:53.016Z,72.16
2022-12-13T17:05:26.630Z,71.96
2022-12-13T17:07:58.206Z,72.13
2022-12-13T17:10:31.075Z,71.82
2022-12-13T17:13:05.748Z,71.83
2022-12-13T17:15:38.131Z,71.96
2022-12-13T17:18:10.154Z,72.06
2022-12-13T17:20:45.205Z,72.56
2022-12-13T17:23:19.280Z,72.38
2022-12-13T17:25:58.232Z,72.09
2022-12-13T17:28:30.799Z,72.04
2022-12-13T17:31:14.551Z,71.84
2022-12-13T17:33:46.945Z,72.26
2022-12-13T17:36:21.770Z,72.27
2022-12-13T17:38:53.429Z,72.38
2022-12-13T17:41:25.116Z,72.75
2022-12-13T17:44:00.776Z,72.75
2022-12-13T17:46:37.035Z,72.79
2022-12-13T17:49:08.713Z,72.66
2022-12-13T17:51:40.826Z,72.82
2022-12-13T17:54:15.042Z,73.07
2022-12-13T17:56:47.277Z,73.02
2022-12-13T17:59:19.400Z,73.17
2022-12-13T18:01:51.365Z,73.19
2022-12-13T18:04:23.600Z,73.16
2022-12-13T18:07:00.330Z,72.98
2022-12-13T18:09:32.451Z,72.63
2022-12-13T18:12:04.273Z,72.55
2022-12-13T18:14:36.767Z,72.66
2022-12-13T18:17:08.412Z,72.71
2022-12-13T18:19:40.235Z,72.76
2022-12-13T18:22:11.919Z,73.35
2022-12-13T18:24:43.563Z,73.19
2022-12-13T18:27:15.159Z,72.88
2022-12-13T18:29:55.196Z,73.36
2022-12-13T18:32:27.565Z,73.80
2022-12-13T18:34:59.411Z,73.66
2022-12-13T18:37:34.221Z,73.48
2022-12-13T18:40:06.527Z,72.98
2022-12-13T18:42:38.187Z,73.16
2022-12-13T18:45:13.381Z,72.84
2022-12-13T18:47:45.099Z,72.71
2022-12-13T18:50:16.894Z,72.13
2022-12-13T18:52:51.497Z,72.65
2022-12-13T18:55:25.316Z,72.26
2022-12-13T18:57:59.379Z,72.31
2022-12-13T19:00:32.919Z,72.48
2022-12-13T19:03:07.677Z,72.56
2022-12-13T19:05:59.765Z,72.79
2022-12-13T19:08:32.146Z,72.65
2022-12-13T19:11:04.222Z,72.95
2022-12-13T19:13:36.038Z,72.68
2022-12-13T19:16:20.933Z,73.51
2022-12-13T19:18:55.856Z,73.09
2022-12-13T19:21:32.519Z,73.29
2022-12-13T19:24:04.985Z,72.46
2022-12-13T19:26:38.426Z,72.74
2022-12-13T19:29:10.168Z,72.62
2022-12-13T19:31:47.742Z,72.45
2022-12-13T19:34:22.191Z,72.87
2022-12-13T19:37:06.297Z,73.09
2022-12-13T19:39:38.746Z,72.55
2022-12-13T19:42:10.866Z,73.06
2022-12-13T19:44:42.633Z,72.67
2022-12-13T19:47:14.347Z,73.15
2022-12-13T19:49:48.159Z,73.44
2022-12-13T19:52:21.196Z,73.73
2022-12-13T19:54:53.122Z,73.77
2022-12-13T19:57:25.426Z,73.60
2022-12-13T19:59:59.664Z,74.09
2022-12-13T20:02:45.166Z,75.22
2022-12-13T20:05:17.671Z,75.72
2022-12-13T20:07:51.232Z,74.96
2022-12-13T20:10:22.825Z,75.60
2022-12-13T20:12:54.483Z,74.93
2022-12-13T20:18:24.679Z,74.67
2022-12-13T20:21:15.061Z,75.64
2022-12-13T20:23:49.282Z,76.06
2022-12-13T20:26:28.004Z,76.78
2022-12-13T20:29:01.723Z,76.39
2022-12-13T20:31:35.164Z,76.42
2022-12-13T20:34:10.212Z,76.15
2022-12-13T20:36:46.412Z,75.65
2022-12-13T20:39:18.316Z,75.24
2022-12-13T20:41:50.062Z,75.18
2022-12-13T20:44:21.947Z,74.86
2022-12-13T20:46:53.867Z,74.97
2022-12-13T20:49:25.740Z,74.72
2022-12-13T20:52:00.605Z,74.21
2022-12-13T20:54:32.520Z,73.97
2022-12-13T20:57:04.122Z,74.19
2022-12-13T20:59:36.020Z,74.12
2022-12-13T21:02:07.682Z,73.77
2022-12-13T21:04:40.418Z,73.86
2022-12-13T21:07:15.322Z,74.60
2022-12-13T21:09:47.149Z,74.21
2022-12-13T21:12:18.761Z,74.03
2022-12-13T21:14:52.570Z,73.73
2022-12-13T21:17:28.768Z,73.43
2022-12-13T21:20:00.355Z,74.07
2022-12-13T21:22:31.974Z,73.64
2022-12-13T21:25:04.949Z,73.50
2022-12-13T21:27:36.540Z,73.98
2022-12-13T21:30:08.826Z,73.17
2022-12-13T21:32:40.475Z,73.59
2022-12-13T21:35:18.175Z,73.53
2022-12-13T21:37:52.590Z,74.41
2022-12-13T21:40:29.384Z,73.62
2022-12-13T21:43:01.090Z,73.49
2022-12-13T21:45:57.781Z,73.93
2022-12-13T21:48:29.475Z,73.55
2022-12-13T21:51:01.841Z,73.49
2022-12-13T21:53:35.008Z,73.55
2022-12-13T21:56:26.658Z,73.30
2022-12-13T21:59:19.392Z,73.33
2022-12-13T22:02:12.367Z,72.76
2022-12-13T22:04:55.620Z,71.74
2022-12-13T22:07:37.832Z,71.28
2022-12-13T22:10:10.073Z,71.65
2022-12-13T22:12:43.251Z,71.35
2022-12-13T22:15:16.159Z,71.44
2022-12-13T22:17:49.740Z,71.40
2022-12-13T22:20:22.173Z,70.78
2022-12-13T22:22:53.832Z,70.62
2022-12-13T22:25:28.202Z,70.39
2022-12-13T22:28:00.381Z,70.39
2022-12-13T22:30:33.008Z,69.83
2022-12-13T22:33:04.554Z,70.39
2022-12-13T22:35:41.225Z,70.09
2022-12-13T22:38:12.911Z,69.42
2022-12-13T22:40:45.922Z,69.51
2022-12-13T22:43:20.531Z,68.97
2022-12-13T22:45:52.517Z,70.39
2022-12-13T22:48:25.463Z,70.27
2022-12-13T22:51:11.350Z,69.84
2022-12-13T22:53:47.162Z,70.47
2022-12-13T22:56:23.139Z,70.37
2022-12-13T22:58:57.211Z,69.57
2022-12-13T23:01:34.594Z,70.14
2022-12-13T23:04:07.492Z,70.18
2022-12-13T23:06:40.348Z,70.40
2022-12-13T23:09:14.179Z,69.66
2022-12-13T23:12:04.826Z,69.44
2022-12-13T23:14:36.478Z,69.12
2022-12-13T23:17:10.958Z,69.26
2022-12-13T23:19:52.864Z,69.38
2022-12-13T23:22:25.957Z,69.61
2022-12-13T23:24:57.769Z,69.78
2022-12-13T23:27:29.672Z,69.75
2022-12-13T23:30:02.028Z,69.34
2022-12-13T23:32:34.751Z,70.20
2022-12-13T23:35:08.318Z,70.97
2022-12-13T23:37:40.044Z,70.57
2022-12-13T23:40:12.052Z,71.08
2022-12-13T23:42:43.714Z,70.74
2022-12-13T23:45:15.377Z,70.11
2022-12-13T23:47:47.104Z,70.45
2022-12-13T23:50:18.794Z,70.48
2022-12-13T23:52:50.412Z,70.40
2022-12-13T23:55:22.127Z,70.43
2022-12-13T23:57:53.797Z,70.34
